Latest Coastal Weather Observations for Hillarys Point Boat Harbour

IDW60701

Issued at 1:13 pm WST Saturday 24 June 2017 (issued every 10 minutes, with the page automatically refreshed every 10 minutes)

About coastal observations | Map of coastal stations | Coastal observations for WA | Marine services | Other Formats
Station Details ID: 009265 Name: HILLARYS BOAT HARBOUR NTC AWS Lat: -31.83 Lon: 115.74 Height: 0.0 m
Data from the previous 72 hours. | See also: Recent months for locations in Western Australia
Date/Time
WST
Temp
°C
Wind Pressure Rain since
9am
mm
Weather Cloud Vis
km
Sea
Height
m
Swell
Dir  Spd
kts
Gust
kts
hPa Trend Height
m
Period
s
Dir
24/01:00pm 17.5 E 3 9 1023.2 - - - - - - - - -
24/12:30pm 16.9 SE 4 11 1023.6 - - - - - - - - -
24/12:00pm 17.4 E 4 12 1024.0 - - - - - - - - -
24/11:30am 16.9 E 4 9 1024.3 - - - - - - - - -
24/11:00am 15.9 E 6 13 1024.7 - - - - - - - - -
24/10:30am 15.3 E 4 10 1025.2 - - - - - - - - -
24/10:00am 14.8 E 5 11 1025.4 - - - - - - - - -
24/09:30am 14.3 E 4 10 1025.4 - - - - - - - - -
24/09:00am 13.6 E 4 10 1025.4 - - - - - - - - -
24/08:30am 13.3 ESE 2 7 1025.2 - - - - - - - - -
24/08:00am 12.7 ESE 3 8 1024.9 - - - - - - - - -
24/07:30am 12.4 E 3 8 1024.3 - - - - - - - - -
24/07:00am 12.5 SSE 4 8 1024.1 - - - - - - - - -
24/06:30am 12.3 ESE 3 7 1023.9 - - - - - - - - -
24/06:00am 12.4 E 4 7 1023.5 - - - - - - - - -
24/05:30am 12.6 E 4 8 1023.3 - - - - - - - - -
24/05:00am 12.9 E 5 12 1023.2 - - - - - - - - -
24/04:30am 12.9 E 4 10 1023.4 - - - - - - - - -
24/04:00am 13.0 E 5 11 1023.2 - - - - - - - - -
24/03:30am 13.1 E 6 12 1023.3 - - - - - - - - -
24/03:00am 13.3 E 7 15 1023.3 - - - - - - - - -
24/02:30am 13.4 E 6 14 1023.4 - - - - - - - - -
24/02:00am 13.5 E 7 16 1023.3 - - - - - - - - -
24/01:30am 13.5 E 7 14 1023.2 - - - - - - - - -
24/01:00am 13.8 E 8 15 1023.1 - - - - - - - - -
24/12:30am 14.3 E 6 13 1023.3 - - - - - - - - -
24/12:00am 14.6 E 7 18 1023.4 - - - - - - - - -
 
Date/Time
WST
Temp
°C
Wind Pressure Rain since
9am
mm
Weather Cloud Vis
km
Sea
Height
m
Swell
Dir  Spd
kts
Gust
kts
hPa Trend Height
m
Period
s
Dir
23/11:30pm 14.9 E 5 12 1023.2 - - - - - - - - -
23/11:00pm 15.0 E 5 15 1023.0 - - - - - - - - -
23/10:30pm 15.3 E 4 9 1022.9 - - - - - - - - -
23/10:00pm 15.6 E 7 25 1022.5 - - - - - - - - -
23/09:30pm 15.5 E 4 11 1022.2 - - - - - - - - -
23/09:00pm 15.3 E 2 8 1022.3 - - - - - - - - -
23/08:30pm 15.6 ESE 3 8 1021.9 - - - - - - - - -
23/08:00pm 15.9 ESE 3 11 1021.8 - - - - - - - - -
23/07:30pm 16.2 ESE 3 9 1021.5 - - - - - - - - -
23/07:00pm 16.4 SE 2 6 1021.4 - - - - - - - - -
23/06:30pm 16.5 E 2 5 1021.0 - - - - - - - - -
23/06:00pm 16.8 E 3 7 1020.5 - - - - - - - - -
23/05:30pm 17.2 E 3 8 1019.9 - - - - - - - - -
23/05:00pm 17.7 E 6 12 1019.5 - - - - - - - - -
23/04:30pm 18.1 E 4 13 1019.4 - - - - - - - - -
23/04:00pm 18.4 E 4 12 1019.1 - - - - - - - - -
23/03:30pm 18.3 E 5 12 1018.8 - - - - - - - - -
23/03:00pm 17.9 E 3 7 1018.8 - - - - - - - - -
23/02:30pm 18.2 ESE 4 15 1018.6 - - - - - - - - -
23/02:00pm 18.1 E 6 13 1018.6 - - - - - - - - -
23/01:30pm 17.5 E 6 17 1018.7 - - - - - - - - -
23/01:00pm 17.8 E 7 15 1018.8 - - - - - - - - -
23/12:30pm 17.3 E 6 16 1018.9 - - - - - - - - -
23/12:00pm 16.9 ESE 4 12 1019.1 - - - - - - - - -
23/11:30am 17.2 E 5 12 1019.3 - - - - - - - - -
23/11:00am 16.6 E 6 14 1019.4 - - - - - - - - -
23/10:30am 16.3 ESE 5 15 1019.1 - - - - - - - - -
23/10:00am 16.1 SE 3 10 1019.0 - - - - - - - - -
23/09:30am 15.8 SE 3 10 1018.7 - - - - - - - - -
23/09:00am 15.3 SE 2 8 1018.3 - - - - - - - - -
23/08:30am 15.0 E 3 7 1017.8 - - - - - - - - -
23/08:00am 14.9 E 3 8 1017.2 - - - - - - - - -
23/07:30am 14.9 ESE 3 9 1016.6 - - - - - - - - -
23/07:00am 14.9 E 3 11 1016.1 - - - - - - - - -
23/06:30am 14.8 E 3 10 1015.4 - - - - - - - - -
23/06:00am 14.7 ESE 3 9 1014.9 - - - - - - - - -
23/05:30am 14.8 ESE 3 10 1014.3 - - - - - - - - -
23/05:00am 14.4 ESE 2 9 1013.9 - - - - - - - - -
23/04:30am 14.5 SE 3 9 1013.6 - - - - - - - - -
23/04:00am 14.7 SSE 6 13 1013.4 - - - - - - - - -
23/03:30am 14.5 ESE 3 10 1013.2 - - - - - - - - -
23/03:00am 14.1 SE 2 5 1012.9 - - - - - - - - -
23/02:30am 14.2 SE 3 10 1012.7 - - - - - - - - -
23/02:00am 14.0 SSE 7 14 1012.2 - - - - - - - - -
23/01:30am 14.0 SSE 8 16 1011.8 - - - - - - - - -
23/01:00am 14.6 SSE 8 15 1011.4 - - - - - - - - -
23/12:30am 14.3 S 6 15 1011.2 - - - - - - - - -
23/12:00am 14.2 S 6 14 1011.1 - - - - - - - - -
 
Date/Time
WST
Temp
°C
Wind Pressure Rain since
9am
mm
Weather Cloud Vis
km
Sea
Height
m
Swell
Dir  Spd
kts
Gust
kts
hPa Trend Height
m
Period
s
Dir
22/11:30pm 14.4 S 6 15 1011.0 - - - - - - - - -
22/11:00pm 14.7 S 6 15 1010.9 - - - - - - - - -
22/10:30pm 15.0 S 6 13 1011.1 - - - - - - - - -
22/10:00pm 15.3 S 6 15 1010.9 - - - - - - - - -
22/09:30pm 15.6 S 8 22 1010.9 - - - - - - - - -
22/09:00pm 16.2 S 9 21 1010.9 - - - - - - - - -
22/08:30pm 16.2 SSW 9 22 1010.7 - - - - - - - - -
22/08:00pm 16.2 S 8 21 1010.9 - - - - - - - - -
22/07:30pm 16.3 SSW 10 20 1010.9 - - - - - - - - -
22/07:00pm 16.3 S 9 20 1011.1 - - - - - - - - -
22/06:30pm 16.2 SSW 9 23 1010.9 - - - - - - - - -
22/06:00pm 16.5 SSW 13 22 1010.9 - - - - - - - - -
22/05:30pm 17.0 SSW 10 19 1010.7 - - - - - - - - -
22/05:00pm 17.0 SSW 11 20 1010.5 - - - - - - - - -
22/04:30pm 16.9 SSW 10 18 1010.2 - - - - - - - - -
22/04:00pm 16.7 SW 10 19 1009.9 - - - - - - - - -
22/03:30pm 16.5 SW 9 15 1009.6 - - - - - - - - -
22/03:00pm 16.6 SW 10 16 1009.0 - - - - - - - - -
22/02:30pm 17.0 SW 12 19 1008.7 - - - - - - - - -
22/02:00pm 16.9 SW 12 20 1008.4 - - - - - - - - -
22/01:30pm 17.0 SW 15 21 1008.2 - - - - - - - - -
22/01:00pm 17.0 SW 16 23 1007.8 - - - - - - - - -
22/12:30pm 17.2 SW 16 23 1007.7 - - - - - - - - -
22/12:00pm 17.0 WSW 17 24 1007.6 - - - - - - - - -
22/11:30am 17.1 WSW 18 23 1007.6 - - - - - - - - -
22/11:00am 17.4 WSW 17 23 1007.5 - - - - - - - - -
22/10:30am 17.3 WSW 18 24 1007.2 - - - - - - - - -
22/10:00am 17.5 WSW 16 24 1006.8 - - - - - - - - -
22/09:30am 17.9 WSW 19 28 1006.4 - - - - - - - - -
22/09:14am 17.9 WSW 16 27 1006.2 - - - - - - - - -
22/09:00am 18.1 W 15 22 1006.0 - - - - - - - - -
22/08:30am 17.9 W 17 28 1005.7 - - - - - - - - -
22/08:02am 17.8 W 19 29 1005.4 - - - - - - - - -
22/08:00am 17.8 W 20 29 1005.4 - - - - - - - - -
22/07:30am 18.4 W 19 30 1005.1 - - - - - - - - -
22/07:00am 18.5 W 19 29 1004.7 - - - - - - - - -
22/06:30am 17.2 W 17 30 1004.6 - - - - - - - - -
22/06:00am 18.8 W 15 26 1004.7 - - - - - - - - -
22/05:55am 18.7 W 15 26 1004.8 - - - - - - - - -
22/05:30am 18.4 WNW 14 23 1005.1 - - - - - - - - -
22/05:00am 16.1 NNW 16 29 1005.8 - - - - - - - - -
22/04:30am 15.7 NNW 18 30 1006.4 - - - - - - - - -
22/04:04am 16.0 NW 16 29 1007.0 - - - - - - - - -
22/04:00am 16.3 NW 16 26 1006.9 - - - - - - - - -
22/03:35am 16.3 NNW 15 26 1007.5 - - - - - - - - -
22/03:30am 17.0 NNW 14 25 1007.3 - - - - - - - - -
22/03:08am 17.6 NW 15 27 1007.6 - - - - - - - - -
22/03:00am 17.3 NW 12 23 1007.7 - - - - - - - - -
22/02:36am 17.9 NW 15 25 1008.2 - - - - - - - - -
22/02:30am 17.9 NNW 14 26 1008.4 - - - - - - - - -
22/02:00am 17.6 NNW 12 25 1008.7 - - - - - - - - -
22/01:30am 17.7 NNW 11 20 1009.4 - - - - - - - - -
22/01:00am 16.7 NNW 10 17 1010.0 - - - - - - - - -
22/12:30am 15.4 N 9 19 1010.7 - - - - - - - - -
22/12:00am 14.2 N 10 21 1010.8 - - - - - - - - -
 
Date/Time
WST
Temp
°C
Wind Pressure Rain since
9am
mm
Weather Cloud Vis
km
Sea
Height
m
Swell
Dir  Spd
kts
Gust
kts
hPa Trend Height
m
Period
s
Dir
21/11:30pm 16.3 NNW 9 16 1011.4 - - - - - - - - -
21/11:00pm 15.6 NW 9 18 1011.8 - - - - - - - - -
21/10:30pm 15.9 NNW 12 25 1012.0 - - - - - - - - -
21/10:00pm 16.4 NNW 13 21 1012.3 - - - - - - - - -
21/09:30pm 15.6 WNW 13 22 1012.7 - - - - - - - - -
21/09:00pm 17.8 NW 12 22 1012.6 - - - - - - - - -
21/08:30pm 17.8 NW 11 20 1012.8 - - - - - - - - -
21/08:00pm 17.8 NW 13 23 1012.8 - - - - - - - - -
21/07:30pm 17.3 NW 12 21 1013.0 - - - - - - - - -
21/07:00pm 17.3 NW 11 19 1013.1 - - - - - - - - -
21/06:30pm 17.6 NNW 11 20 1013.0 - - - - - - - - -
21/06:00pm 17.7 NNW 12 22 1013.0 - - - - - - - - -
21/05:30pm 17.8 NW 10 19 1013.0 - - - - - - - - -
21/05:00pm 17.9 NW 11 20 1013.1 - - - - - - - - -
21/04:30pm 17.9 NW 11 20 1013.4 - - - - - - - - -
21/04:00pm 18.2 NW 11 19 1013.4 - - - - - - - - -
21/03:30pm 17.9 NW 11 20 1013.5 - - - - - - - - -
21/03:00pm 18.0 NW 11 19 1013.6 - - - - - - - - -
21/02:30pm 16.9 NNW 10 19 1013.5 - - - - - - - - -
21/02:00pm 18.4 NW 10 19 1013.6 - - - - - - - - -
21/01:30pm 18.3 NW 10 17 1013.9 - - - - - - - - -

Other Formats:

Comma delimited format used in spreadsheet applications
http://www.bom.gov.au/fwo/IDW60701/IDW60701.95605.axf

JavaScript Object Notation format (JSON) in row-major order
http://www.bom.gov.au/fwo/IDW60701/IDW60701.95605.json